Terminal Aerodrome Forecast
Issued by NWS

Home | Current Version | Previous Version | Text Only | Print | Product List | Glossary On
Versions: 1 2 3 4 5 6 7 8 9 10 11 12 13 14 15 16 17
000
FTUS42 KTBW 212334
TAFPIE
TAF
KPIE 212334Z 2200/2224 18013G18KT P6SM SCT250
     FM220600 17009KT 6SM BR SCT025 BKN080
     FM221200 18014G20KT P6SM VCTS FEW010CB BKN025
     FM221500 19017G23KT P6SM VCTS SCT010CB BKN025
     FM221800 23019G27KT P6SM -TSRA SCT015CB OVC025=

USA.gov is the U.S. government's official web portal to all federal, state and local government web resources and services.